createdAt,value
2018-06-12T00:04:52.881Z,94995.00
2018-06-12T00:10:22.993Z,94995.00
2018-06-12T00:15:53.351Z,94990.00
2018-06-12T00:21:23.433Z,95001.00
2018-06-12T00:26:53.639Z,95003.00
2018-06-12T00:32:23.521Z,95014.00
2018-06-12T00:37:53.635Z,95006.00
2018-06-12T00:43:23.780Z,95017.00
2018-06-12T00:48:53.691Z,95008.00
2018-06-12T00:54:23.749Z,95013.00
2018-06-12T00:59:53.581Z,95003.00
2018-06-12T01:05:23.883Z,95001.00
2018-06-12T01:10:53.743Z,94996.00
2018-06-12T01:16:23.477Z,94990.00
2018-06-12T01:21:53.495Z,94985.00
2018-06-12T01:27:23.590Z,94993.00
2018-06-12T01:32:53.645Z,95002.00
2018-06-12T01:38:23.553Z,94995.00
2018-06-12T01:43:53.654Z,95000.00
2018-06-12T01:49:23.617Z,94996.00
2018-06-12T01:54:53.758Z,95003.00
2018-06-12T02:00:24.475Z,95003.00
2018-06-12T02:05:55.058Z,94998.00
2018-06-12T02:17:23.098Z,94999.00
2018-06-12T02:22:59.017Z,94999.00
2018-06-12T02:28:28.298Z,95011.00
2018-06-12T02:33:57.985Z,95015.00
2018-06-12T02:39:30.312Z,95005.00
2018-06-12T02:45:00.322Z,94998.00
2018-06-12T02:50:29.553Z,95000.00
2018-06-12T02:55:59.853Z,95006.00
2018-06-12T03:01:31.163Z,95007.00
2018-06-12T03:07:00.584Z,94993.00
2018-06-12T03:12:29.925Z,94996.00
2018-06-12T03:17:59.213Z,94993.00
2018-06-12T03:23:30.119Z,95006.00
2018-06-12T03:29:01.406Z,94995.00
2018-06-12T03:34:30.710Z,94990.00
2018-06-12T03:39:59.955Z,94996.00
2018-06-12T03:45:29.169Z,94993.00
2018-06-12T03:50:59.187Z,94997.00
2018-06-12T03:56:29.220Z,95004.00
2018-06-12T04:01:58.458Z,95000.00
2018-06-12T04:07:27.717Z,94998.00
2018-06-12T04:12:57.171Z,95000.00
2018-06-12T04:18:26.986Z,95001.00
2018-06-12T04:23:57.714Z,95004.00
2018-06-12T04:29:31.413Z,95005.00
2018-06-12T04:35:00.706Z,95013.00
2018-06-12T04:40:29.962Z,95011.00
2018-06-12T04:46:08.383Z,95016.00
2018-06-12T04:51:37.702Z,95030.00
2018-06-12T04:57:07.002Z,95023.00
2018-06-12T05:02:36.445Z,95018.00
2018-06-12T05:08:05.693Z,95024.00
2018-06-12T05:13:34.894Z,95025.00
2018-06-12T05:19:04.267Z,95034.00
2018-06-12T05:24:33.456Z,95036.00
2018-06-12T05:30:03.188Z,95032.00
2018-06-12T05:35:53.549Z,95030.00
2018-06-12T05:41:33.861Z,95040.00
2018-06-12T05:47:03.739Z,95046.00
2018-06-12T05:52:33.009Z,95056.00
2018-06-12T05:58:34.646Z,95072.00
2018-06-12T06:04:03.896Z,95069.00
2018-06-12T06:09:47.546Z,95065.00
2018-06-12T06:15:29.132Z,95057.00
2018-06-12T06:20:59.983Z,95071.00
2018-06-12T06:32:31.535Z,95070.00
2018-06-12T06:38:00.779Z,95068.00
2018-06-12T06:43:29.997Z,95072.00
2018-06-12T06:48:59.388Z,95068.00
2018-06-12T06:54:28.598Z,95076.00
2018-06-12T06:59:59.024Z,95080.00
2018-06-12T07:05:33.000Z,95094.00
2018-06-12T07:11:02.287Z,95082.00
2018-06-12T07:16:32.352Z,95076.00
2018-06-12T07:22:01.552Z,95075.00
2018-06-12T07:27:30.792Z,95057.00
2018-06-12T07:33:37.650Z,95064.00
2018-06-12T07:44:48.339Z,95069.00
2018-06-12T07:50:18.079Z,95069.00
2018-06-12T07:55:47.737Z,95074.00
2018-06-12T08:01:37.154Z,95073.00
2018-06-12T08:07:06.764Z,95067.00
2018-06-12T08:12:35.960Z,95068.00
2018-06-12T08:18:05.362Z,95065.00
2018-06-12T08:23:35.172Z,95061.00
2018-06-12T08:29:04.376Z,95063.00
2018-06-12T08:34:33.685Z,95058.00
2018-06-12T08:40:02.899Z,95061.00
2018-06-12T08:45:32.135Z,95063.00
2018-06-12T08:51:01.366Z,95052.00
2018-06-12T08:56:30.550Z,95052.00
2018-06-12T09:01:59.787Z,95049.00
2018-06-12T09:07:29.011Z,95049.00
2018-06-12T09:12:58.293Z,95047.00
2018-06-12T09:18:28.823Z,95038.00
2018-06-12T09:23:58.089Z,95051.00
2018-06-12T09:29:27.525Z,95052.00
2018-06-12T09:34:56.869Z,95045.00
2018-06-12T09:40:30.856Z,95050.00
2018-06-12T09:46:00.114Z,95038.00
2018-06-12T09:51:30.104Z,95039.00
2018-06-12T09:56:59.374Z,95041.00
2018-06-12T10:02:28.602Z,95044.00
2018-06-12T10:07:57.885Z,95030.00
2018-06-12T10:13:52.079Z,95032.00
2018-06-12T10:19:21.599Z,95037.00
2018-06-12T10:24:57.634Z,95022.00
2018-06-12T10:30:26.845Z,95018.00
2018-06-12T10:35:56.091Z,95007.00
2018-06-12T10:41:25.464Z,95010.00
2018-06-12T10:46:54.808Z,95012.00
2018-06-12T10:52:25.912Z,95008.00
2018-06-12T10:58:18.933Z,95004.00
2018-06-12T11:03:50.830Z,95003.00
2018-06-12T11:09:24.630Z,94997.00
2018-06-12T11:14:57.121Z,94990.00
2018-06-12T11:20:27.023Z,94989.00
2018-06-12T11:25:56.446Z,94968.00
2018-06-12T11:31:26.159Z,94968.00
2018-06-12T11:36:55.359Z,94956.00
2018-06-12T11:42:25.364Z,94941.00
2018-06-12T11:47:54.955Z,94920.00
2018-06-12T11:53:27.687Z,94902.00
2018-06-12T11:59:01.074Z,94875.00
2018-06-12T12:04:30.459Z,94870.00
2018-06-12T12:09:59.694Z,94866.00
2018-06-12T12:15:28.921Z,94855.00
2018-06-12T12:21:01.799Z,94858.00
2018-06-12T12:26:34.360Z,94852.00
2018-06-12T12:32:04.425Z,94851.00
2018-06-12T12:37:33.689Z,94851.00
2018-06-12T12:43:03.732Z,94865.00
2018-06-12T12:48:32.967Z,94878.00
2018-06-12T12:54:02.207Z,94882.00
2018-06-12T12:59:31.407Z,94863.00
2018-06-12T13:05:00.989Z,94853.00
2018-06-12T13:10:29.952Z,94857.00
2018-06-12T13:16:34.895Z,94850.00
2018-06-12T13:22:04.274Z,94837.00
2018-06-12T13:27:33.584Z,94831.00
2018-06-12T13:33:02.855Z,94832.00
2018-06-12T13:38:32.066Z,94829.00
2018-06-12T13:44:01.390Z,94834.00
2018-06-12T13:49:30.664Z,94832.00
2018-06-12T13:55:00.267Z,94841.00
2018-06-12T14:00:29.574Z,94829.00
2018-06-12T14:05:58.796Z,94821.00
2018-06-12T14:11:28.181Z,94799.00
2018-06-12T14:16:57.415Z,94799.00
2018-06-12T14:22:30.869Z,94800.00
2018-06-12T14:28:00.123Z,94796.00
2018-06-12T14:33:30.763Z,94802.00
2018-06-12T14:38:59.977Z,94804.00
2018-06-12T14:44:33.394Z,94805.00
2018-06-12T14:50:23.901Z,94807.00
2018-06-12T14:55:56.698Z,94818.00
2018-06-12T15:01:26.306Z,94829.00
2018-06-12T15:07:04.464Z,94855.00
2018-06-12T15:12:33.706Z,94859.00
2018-06-12T15:18:02.995Z,94860.00
2018-06-12T15:23:32.299Z,94846.00
2018-06-12T15:29:01.620Z,94832.00
2018-06-12T15:34:30.864Z,94851.00
2018-06-12T15:40:00.120Z,94849.00
2018-06-12T15:45:29.098Z,94859.00
2018-06-12T15:50:58.416Z,94864.00
2018-06-12T15:56:49.906Z,94858.00
2018-06-12T16:02:22.713Z,94871.00
2018-06-12T16:07:54.263Z,94907.00
2018-06-12T16:13:26.156Z,94917.00
2018-06-12T16:18:57.407Z,94895.00
2018-06-12T16:24:29.987Z,94873.00
2018-06-12T16:29:59.277Z,94883.00
2018-06-12T16:35:28.622Z,94897.00
2018-06-12T16:40:57.995Z,94893.00
2018-06-12T16:46:27.160Z,94877.00
2018-06-12T16:51:56.948Z,94852.00
2018-06-12T16:57:26.311Z,94849.00
2018-06-12T17:02:57.699Z,94885.00
2018-06-12T17:08:27.440Z,94876.00
2018-06-12T17:13:59.074Z,94870.00
2018-06-12T17:19:31.149Z,94877.00
2018-06-12T17:25:01.340Z,94876.00
2018-06-12T17:30:31.907Z,94876.00
2018-06-12T17:36:01.303Z,94875.00
2018-06-12T17:41:30.574Z,94874.00
2018-06-12T17:46:59.969Z,94885.00
2018-06-12T17:52:30.544Z,94876.00
2018-06-12T17:58:03.713Z,94883.00
2018-06-12T18:03:36.836Z,94887.00
2018-06-12T18:09:08.326Z,94887.00
2018-06-12T18:14:40.882Z,94883.00
2018-06-12T18:20:20.884Z,94884.00
2018-06-12T18:25:50.601Z,94887.00
2018-06-12T18:31:20.001Z,94889.00
2018-06-12T18:36:49.861Z,94900.00
2018-06-12T18:42:19.640Z,94905.00
2018-06-12T18:47:50.090Z,94919.00
2018-06-12T18:53:19.655Z,94925.00
2018-06-12T18:58:50.760Z,94916.00
2018-06-12T19:04:21.544Z,94917.00
2018-06-12T19:09:54.696Z,94911.00
2018-06-12T19:15:25.619Z,94906.00
2018-06-12T19:20:56.614Z,94897.00
2018-06-12T19:26:27.344Z,94886.00
2018-06-12T19:31:57.367Z,94882.00
2018-06-12T19:37:26.792Z,94881.00
2018-06-12T19:42:56.179Z,94885.00
2018-06-12T19:48:25.900Z,94884.00
2018-06-12T19:53:59.032Z,94905.00
2018-06-12T19:59:28.452Z,94898.00
2018-06-12T20:04:58.179Z,94913.00
2018-06-12T20:10:28.365Z,94910.00
2018-06-12T20:15:59.491Z,94915.00
2018-06-12T20:21:30.749Z,94916.00
2018-06-12T20:27:01.017Z,94945.00
2018-06-12T20:32:30.473Z,94946.00
2018-06-12T20:37:59.883Z,94924.00
2018-06-12T20:43:46.482Z,94914.00
2018-06-12T20:49:17.836Z,94909.00
2018-06-12T20:54:50.612Z,94905.00
2018-06-12T21:00:22.586Z,94905.00
2018-06-12T21:05:52.289Z,94907.00
2018-06-12T21:11:22.016Z,94913.00
2018-06-12T21:16:51.569Z,94918.00
2018-06-12T21:22:21.092Z,94915.00
2018-06-12T21:27:51.559Z,94921.00
2018-06-12T21:33:21.449Z,94918.00
2018-06-12T21:38:51.319Z,94916.00
2018-06-12T21:44:20.735Z,94920.00
2018-06-12T21:49:50.149Z,94918.00
2018-06-12T21:55:23.407Z,94902.00
2018-06-12T22:00:52.870Z,94898.00
2018-06-12T22:06:23.285Z,94908.00
2018-06-12T22:11:52.901Z,94900.00
2018-06-12T22:17:22.340Z,94911.00
2018-06-12T22:22:52.137Z,94912.00
2018-06-12T22:28:21.815Z,94905.00
2018-06-12T22:33:51.192Z,94900.00
2018-06-12T22:39:20.498Z,94894.00
2018-06-12T22:44:49.691Z,94889.00
2018-06-12T22:50:19.101Z,94891.00
2018-06-12T22:55:48.483Z,94890.00
2018-06-12T23:01:17.755Z,94896.00
2018-06-12T23:06:47.023Z,94888.00
2018-06-12T23:12:16.444Z,94891.00
2018-06-12T23:17:47.136Z,94882.00
2018-06-12T23:23:16.545Z,94880.00
2018-06-12T23:28:46.622Z,94870.00
2018-06-12T23:34:16.152Z,94866.00
2018-06-12T23:39:45.842Z,94857.00
2018-06-12T23:45:15.716Z,94861.00
2018-06-12T23:50:45.512Z,94859.00
2018-06-12T23:56:17.084Z,94861.00
